sensor_id;sensor_type;location;lat;lon;timestamp;P1;durP1;ratioP1;P2;durP2;ratioP2
57985;SDS011;43788;42.670;23.330;2024-03-23T00:53:54;1.65;;;1.20;;
57985;SDS011;43788;42.670;23.330;2024-03-23T00:56:19;2.10;;;1.60;;
57985;SDS011;43788;42.670;23.330;2024-03-23T00:58:45;8.35;;;1.40;;
57985;SDS011;43788;42.670;23.330;2024-03-23T01:01:10;5.25;;;1.52;;
57985;SDS011;43788;42.670;23.330;2024-03-23T01:03:36;1.60;;;1.50;;
57985;SDS011;43788;42.670;23.330;2024-03-23T01:06:01;3.90;;;2.08;;
57985;SDS011;43788;42.670;23.330;2024-03-23T01:08:28;3.38;;;1.25;;
57985;SDS011;43788;42.670;23.330;2024-03-23T01:10:54;4.93;;;1.30;;
57985;SDS011;43788;42.670;23.330;2024-03-23T01:13:21;1.50;;;1.38;;
57985;SDS011;43788;42.670;23.330;2024-03-23T01:15:49;6.82;;;2.10;;
57985;SDS011;43788;42.670;23.330;2024-03-23T01:18:15;2.20;;;1.48;;
57985;SDS011;43788;42.670;23.330;2024-03-23T01:20:40;4.22;;;1.40;;
57985;SDS011;43788;42.670;23.330;2024-03-23T01:23:05;6.70;;;1.95;;
57985;SDS011;43788;42.670;23.330;2024-03-23T01:25:31;1.55;;;1.20;;
57985;SDS011;43788;42.670;23.330;2024-03-23T01:27:56;2.80;;;1.60;;
57985;SDS011;43788;42.670;23.330;2024-03-23T01:30:22;1.83;;;1.63;;
57985;SDS011;43788;42.670;23.330;2024-03-23T01:32:47;3.50;;;2.03;;
57985;SDS011;43788;42.670;23.330;2024-03-23T01:35:13;3.45;;;1.30;;
57985;SDS011;43788;42.670;23.330;2024-03-23T01:37:38;2.80;;;1.80;;
57985;SDS011;43788;42.670;23.330;2024-03-23T01:40:04;2.15;;;0.88;;
57985;SDS011;43788;42.670;23.330;2024-03-23T01:42:29;1.33;;;0.90;;
57985;SDS011;43788;42.670;23.330;2024-03-23T01:44:55;5.10;;;1.02;;
57985;SDS011;43788;42.670;23.330;2024-03-23T01:47:20;1.00;;;0.90;;
57985;SDS011;43788;42.670;23.330;2024-03-23T01:49:46;0.98;;;0.95;;
57985;SDS011;43788;42.670;23.330;2024-03-23T01:52:11;1.35;;;0.98;;
57985;SDS011;43788;42.670;23.330;2024-03-23T01:54:37;2.85;;;1.90;;
57985;SDS011;43788;42.670;23.330;2024-03-23T01:57:03;2.92;;;1.30;;
57985;SDS011;43788;42.670;23.330;2024-03-23T01:59:29;1.58;;;1.13;;
57985;SDS011;43788;42.670;23.330;2024-03-23T02:01:54;1.30;;;1.02;;
57985;SDS011;43788;42.670;23.330;2024-03-23T02:04:20;2.38;;;1.38;;
57985;SDS011;43788;42.670;23.330;2024-03-23T02:06:45;2.88;;;1.33;;
57985;SDS011;43788;42.670;23.330;2024-03-23T02:09:11;2.13;;;1.50;;
57985;SDS011;43788;42.670;23.330;2024-03-23T02:11:36;1.65;;;1.55;;
57985;SDS011;43788;42.670;23.330;2024-03-23T02:14:02;4.40;;;1.50;;
57985;SDS011;43788;42.670;23.330;2024-03-23T02:16:27;2.95;;;1.85;;
57985;SDS011;43788;42.670;23.330;2024-03-23T02:18:53;2.10;;;1.23;;
57985;SDS011;43788;42.670;23.330;2024-03-23T02:21:18;1.40;;;0.82;;
57985;SDS011;43788;42.670;23.330;2024-03-23T02:23:44;1.67;;;1.05;;
57985;SDS011;43788;42.670;23.330;2024-03-23T02:26:09;0.98;;;0.88;;
57985;SDS011;43788;42.670;23.330;2024-03-23T02:28:35;3.72;;;1.73;;
57985;SDS011;43788;42.670;23.330;2024-03-23T02:31:00;1.10;;;0.77;;
57985;SDS011;43788;42.670;23.330;2024-03-23T02:33:26;1.58;;;1.00;;
57985;SDS011;43788;42.670;23.330;2024-03-23T02:35:55;1.50;;;1.20;;
57985;SDS011;43788;42.670;23.330;2024-03-23T02:38:21;1.23;;;0.90;;
57985;SDS011;43788;42.670;23.330;2024-03-23T02:40:46;2.35;;;0.93;;
57985;SDS011;43788;42.670;23.330;2024-03-23T02:43:12;2.15;;;1.30;;
57985;SDS011;43788;42.670;23.330;2024-03-23T02:45:37;1.25;;;0.85;;
57985;SDS011;43788;42.670;23.330;2024-03-23T02:48:03;1.33;;;1.02;;
57985;SDS011;43788;42.670;23.330;2024-03-23T02:50:29;2.80;;;1.23;;
57985;SDS011;43788;42.670;23.330;2024-03-23T02:52:54;1.85;;;1.50;;
57985;SDS011;43788;42.670;23.330;2024-03-23T02:55:19;1.10;;;0.90;;
57985;SDS011;43788;42.670;23.330;2024-03-23T02:57:45;1.33;;;1.10;;
57985;SDS011;43788;42.670;23.330;2024-03-23T03:00:10;1.58;;;1.33;;
57985;SDS011;43788;42.670;23.330;2024-03-23T03:02:37;1.30;;;1.05;;
57985;SDS011;43788;42.670;23.330;2024-03-23T03:05:03;7.72;;;1.50;;
57985;SDS011;43788;42.670;23.330;2024-03-23T03:07:30;1.13;;;1.00;;
57985;SDS011;43788;42.670;23.330;2024-03-23T03:09:56;1.13;;;1.02;;
57985;SDS011;43788;42.670;23.330;2024-03-23T03:12:22;0.98;;;0.85;;
57985;SDS011;43788;42.670;23.330;2024-03-23T03:14:47;3.80;;;1.20;;
57985;SDS011;43788;42.670;23.330;2024-03-23T03:17:13;1.92;;;0.93;;
57985;SDS011;43788;42.670;23.330;2024-03-23T03:19:39;1.30;;;1.00;;
57985;SDS011;43788;42.670;23.330;2024-03-23T03:22:05;1.10;;;1.00;;
57985;SDS011;43788;42.670;23.330;2024-03-23T03:24:30;1.63;;;1.30;;
57985;SDS011;43788;42.670;23.330;2024-03-23T03:26:56;5.68;;;1.40;;
57985;SDS011;43788;42.670;23.330;2024-03-23T03:29:23;4.68;;;1.27;;
57985;SDS011;43788;42.670;23.330;2024-03-23T03:31:48;1.10;;;0.90;;
57985;SDS011;43788;42.670;23.330;2024-03-23T03:34:15;2.35;;;1.25;;
57985;SDS011;43788;42.670;23.330;2024-03-23T03:36:40;1.92;;;1.45;;
57985;SDS011;43788;42.670;23.330;2024-03-23T03:39:06;2.35;;;1.50;;
57985;SDS011;43788;42.670;23.330;2024-03-23T03:41:32;1.40;;;1.15;;
57985;SDS011;43788;42.670;23.330;2024-03-23T03:43:57;1.08;;;1.00;;
57985;SDS011;43788;42.670;23.330;2024-03-23T03:46:30;1.50;;;0.90;;
57985;SDS011;43788;42.670;23.330;2024-03-23T03:48:55;1.70;;;1.00;;
57985;SDS011;43788;42.670;23.330;2024-03-23T03:51:21;1.05;;;1.02;;
57985;SDS011;43788;42.670;23.330;2024-03-23T03:53:46;1.30;;;1.10;;
57985;SDS011;43788;42.670;23.330;2024-03-23T03:56:12;0.90;;;0.82;;
57985;SDS011;43788;42.670;23.330;2024-03-23T03:58:37;1.75;;;1.20;;
57985;SDS011;43788;42.670;23.330;2024-03-23T04:01:03;1.73;;;1.23;;
57985;SDS011;43788;42.670;23.330;2024-03-23T04:03:30;4.03;;;0.90;;
57985;SDS011;43788;42.670;23.330;2024-03-23T04:05:55;1.42;;;1.10;;
57985;SDS011;43788;42.670;23.330;2024-03-23T04:08:21;1.63;;;1.10;;
57985;SDS011;43788;42.670;23.330;2024-03-23T04:10:47;1.55;;;0.88;;
57985;SDS011;43788;42.670;23.330;2024-03-23T04:13:13;1.35;;;1.20;;
57985;SDS011;43788;42.670;23.330;2024-03-23T04:15:38;0.93;;;0.85;;
57985;SDS011;43788;42.670;23.330;2024-03-23T04:18:04;1.48;;;1.27;;
57985;SDS011;43788;42.670;23.330;2024-03-23T04:20:30;1.17;;;0.85;;
57985;SDS011;43788;42.670;23.330;2024-03-23T04:22:58;1.45;;;1.00;;
57985;SDS011;43788;42.670;23.330;2024-03-23T04:25:24;1.23;;;1.13;;
57985;SDS011;43788;42.670;23.330;2024-03-23T04:27:50;0.80;;;0.80;;
57985;SDS011;43788;42.670;23.330;2024-03-23T04:30:16;1.38;;;1.08;;
57985;SDS011;43788;42.670;23.330;2024-03-23T04:32:42;0.90;;;0.85;;
57985;SDS011;43788;42.670;23.330;2024-03-23T04:35:08;1.20;;;1.10;;
57985;SDS011;43788;42.670;23.330;2024-03-23T04:37:35;0.73;;;0.73;;
57985;SDS011;43788;42.670;23.330;2024-03-23T04:40:02;1.45;;;1.00;;
57985;SDS011;43788;42.670;23.330;2024-03-23T04:42:29;1.73;;;1.33;;
57985;SDS011;43788;42.670;23.330;2024-03-23T04:44:55;1.95;;;0.93;;
57985;SDS011;43788;42.670;23.330;2024-03-23T04:47:20;1.15;;;1.05;;
57985;SDS011;43788;42.670;23.330;2024-03-23T04:49:46;1.70;;;0.57;;
57985;SDS011;43788;42.670;23.330;2024-03-23T04:52:11;0.70;;;0.50;;
57985;SDS011;43788;42.670;23.330;2024-03-23T04:54:37;1.30;;;1.20;;
57985;SDS011;43788;42.670;23.330;2024-03-23T04:57:03;4.60;;;1.00;;
57985;SDS011;43788;42.670;23.330;2024-03-23T04:59:28;0.80;;;0.75;;
57985;SDS011;43788;42.670;23.330;2024-03-23T05:01:54;1.85;;;0.95;;
57985;SDS011;43788;42.670;23.330;2024-03-23T05:04:19;2.38;;;1.02;;
57985;SDS011;43788;42.670;23.330;2024-03-23T05:06:44;0.82;;;0.80;;
57985;SDS011;43788;42.670;23.330;2024-03-23T05:09:12;1.55;;;0.93;;
57985;SDS011;43788;42.670;23.330;2024-03-23T05:11:38;2.70;;;1.20;;
57985;SDS011;43788;42.670;23.330;2024-03-23T05:14:04;8.73;;;1.17;;
57985;SDS011;43788;42.670;23.330;2024-03-23T05:16:29;1.00;;;0.90;;
57985;SDS011;43788;42.670;23.330;2024-03-23T05:18:54;0.52;;;0.52;;
57985;SDS011;43788;42.670;23.330;2024-03-23T05:21:20;1.30;;;0.68;;
57985;SDS011;43788;42.670;23.330;2024-03-23T05:23:45;1.85;;;0.90;;
57985;SDS011;43788;42.670;23.330;2024-03-23T05:26:11;1.23;;;1.10;;
57985;SDS011;43788;42.670;23.330;2024-03-23T05:28:38;4.55;;;1.20;;
57985;SDS011;43788;42.670;23.330;2024-03-23T05:31:03;1.52;;;1.05;;
57985;SDS011;43788;42.670;23.330;2024-03-23T05:33:29;3.35;;;1.23;;
57985;SDS011;43788;42.670;23.330;2024-03-23T05:35:57;2.92;;;1.00;;
57985;SDS011;43788;42.670;23.330;2024-03-23T05:38:24;1.20;;;1.10;;
57985;SDS011;43788;42.670;23.330;2024-03-23T05:40:57;1.92;;;1.08;;
57985;SDS011;43788;42.670;23.330;2024-03-23T05:43:23;2.33;;;1.27;;
57985;SDS011;43788;42.670;23.330;2024-03-23T05:45:56;1.80;;;1.02;;
57985;SDS011;43788;42.670;23.330;2024-03-23T05:48:26;1.50;;;1.15;;
57985;SDS011;43788;42.670;23.330;2024-03-23T05:50:52;1.17;;;0.95;;
57985;SDS011;43788;42.670;23.330;2024-03-23T05:53:20;5.40;;;1.65;;
57985;SDS011;43788;42.670;23.330;2024-03-23T05:55:46;1.65;;;1.10;;
57985;SDS011;43788;42.670;23.330;2024-03-23T05:58:14;0.80;;;0.80;;
57985;SDS011;43788;42.670;23.330;2024-03-23T06:00:40;1.17;;;1.00;;
57985;SDS011;43788;42.670;23.330;2024-03-23T06:03:07;3.35;;;1.17;;
57985;SDS011;43788;42.670;23.330;2024-03-23T06:05:33;2.13;;;1.15;;
57985;SDS011;43788;42.670;23.330;2024-03-23T06:07:58;2.08;;;1.17;;
57985;SDS011;43788;42.670;23.330;2024-03-23T06:10:24;3.35;;;1.15;;
57985;SDS011;43788;42.670;23.330;2024-03-23T06:12:49;1.10;;;1.00;;
57985;SDS011;43788;42.670;23.330;2024-03-23T06:15:17;1.73;;;1.10;;
57985;SDS011;43788;42.670;23.330;2024-03-23T06:17:44;1.00;;;0.90;;
57985;SDS011;43788;42.670;23.330;2024-03-23T06:20:09;1.98;;;1.45;;
57985;SDS011;43788;42.670;23.330;2024-03-23T06:22:35;1.67;;;1.40;;
57985;SDS011;43788;42.670;23.330;2024-03-23T06:25:00;1.73;;;1.30;;
57985;SDS011;43788;42.670;23.330;2024-03-23T06:27:29;1.52;;;1.42;;
57985;SDS011;43788;42.670;23.330;2024-03-23T06:30:00;1.10;;;1.00;;
57985;SDS011;43788;42.670;23.330;2024-03-23T06:32:27;1.10;;;1.00;;
57985;SDS011;43788;42.670;23.330;2024-03-23T06:34:53;3.97;;;1.23;;
57985;SDS011;43788;42.670;23.330;2024-03-23T06:37:20;3.47;;;0.93;;
57985;SDS011;43788;42.670;23.330;2024-03-23T06:39:48;1.85;;;0.85;;
57985;SDS011;43788;42.670;23.330;2024-03-23T06:42:14;1.25;;;1.05;;
57985;SDS011;43788;42.670;23.330;2024-03-23T06:44:40;0.85;;;0.85;;
57985;SDS011;43788;42.670;23.330;2024-03-23T06:47:06;1.65;;;1.10;;
57985;SDS011;43788;42.670;23.330;2024-03-23T06:49:32;1.42;;;1.33;;
57985;SDS011;43788;42.670;23.330;2024-03-23T06:51:57;1.23;;;1.13;;
57985;SDS011;43788;42.670;23.330;2024-03-23T06:54:24;1.00;;;0.82;;
57985;SDS011;43788;42.670;23.330;2024-03-23T06:56:50;1.10;;;1.00;;
57985;SDS011;43788;42.670;23.330;2024-03-23T06:59:15;1.92;;;1.15;;
57985;SDS011;43788;42.670;23.330;2024-03-23T07:01:41;1.70;;;1.30;;
57985;SDS011;43788;42.670;23.330;2024-03-23T07:04:07;1.60;;;1.15;;
57985;SDS011;43788;42.670;23.330;2024-03-23T07:06:33;1.83;;;0.90;;
57985;SDS011;43788;42.670;23.330;2024-03-23T07:08:58;1.27;;;0.93;;
57985;SDS011;43788;42.670;23.330;2024-03-23T07:11:25;1.48;;;1.27;;
57985;SDS011;43788;42.670;23.330;2024-03-23T07:13:52;1.02;;;0.90;;
57985;SDS011;43788;42.670;23.330;2024-03-23T07:16:22;1.27;;;1.10;;
57985;SDS011;43788;42.670;23.330;2024-03-23T07:18:49;1.48;;;1.30;;
57985;SDS011;43788;42.670;23.330;2024-03-23T07:21:15;1.33;;;1.23;;
57985;SDS011;43788;42.670;23.330;2024-03-23T07:23:42;1.00;;;0.90;;
57985;SDS011;43788;42.670;23.330;2024-03-23T07:26:12;1.05;;;0.93;;
57985;SDS011;43788;42.670;23.330;2024-03-23T07:28:40;2.03;;;1.13;;
57985;SDS011;43788;42.670;23.330;2024-03-23T07:31:11;1.45;;;1.27;;
57985;SDS011;43788;42.670;23.330;2024-03-23T07:33:43;0.95;;;0.88;;
57985;SDS011;43788;42.670;23.330;2024-03-23T07:36:10;3.45;;;1.42;;
57985;SDS011;43788;42.670;23.330;2024-03-23T07:38:35;0.70;;;0.63;;
57985;SDS011;43788;42.670;23.330;2024-03-23T07:41:03;1.13;;;0.80;;
57985;SDS011;43788;42.670;23.330;2024-03-23T07:43:30;2.20;;;1.30;;
57985;SDS011;43788;42.670;23.330;2024-03-23T07:45:55;1.98;;;1.40;;
57985;SDS011;43788;42.670;23.330;2024-03-23T07:48:21;1.23;;;0.77;;
57985;SDS011;43788;42.670;23.330;2024-03-23T07:53:33;1.10;;;1.00;;
57985;SDS011;43788;42.670;23.330;2024-03-23T07:56:00;1.10;;;1.05;;
57985;SDS011;43788;42.670;23.330;2024-03-23T07:58:27;2.08;;;1.00;;
57985;SDS011;43788;42.670;23.330;2024-03-23T08:00:53;1.50;;;1.10;;
57985;SDS011;43788;42.670;23.330;2024-03-23T08:03:19;1.33;;;1.20;;
57985;SDS011;43788;42.670;23.330;2024-03-23T08:05:45;1.27;;;1.17;;
57985;SDS011;43788;42.670;23.330;2024-03-23T08:08:10;1.20;;;1.05;;
57985;SDS011;43788;42.670;23.330;2024-03-23T08:10:37;1.95;;;1.48;;
57985;SDS011;43788;42.670;23.330;2024-03-23T08:13:03;1.85;;;1.17;;
57985;SDS011;43788;42.670;23.330;2024-03-23T08:15:30;1.60;;;1.40;;
57985;SDS011;43788;42.670;23.330;2024-03-23T08:17:58;1.58;;;1.10;;
57985;SDS011;43788;42.670;23.330;2024-03-23T08:20:24;2.92;;;1.50;;
57985;SDS011;43788;42.670;23.330;2024-03-23T08:22:50;2.28;;;1.25;;
57985;SDS011;43788;42.670;23.330;2024-03-23T08:25:16;2.03;;;1.55;;
57985;SDS011;43788;42.670;23.330;2024-03-23T08:27:44;1.27;;;1.17;;
57985;SDS011;43788;42.670;23.330;2024-03-23T08:30:10;1.10;;;1.00;;
57985;SDS011;43788;42.670;23.330;2024-03-23T08:32:36;1.05;;;0.98;;
57985;SDS011;43788;42.670;23.330;2024-03-23T08:35:02;1.33;;;1.17;;
57985;SDS011;43788;42.670;23.330;2024-03-23T08:37:27;2.20;;;1.25;;
57985;SDS011;43788;42.670;23.330;2024-03-23T08:39:53;1.83;;;1.40;;
57985;SDS011;43788;42.670;23.330;2024-03-23T08:42:18;1.08;;;1.00;;
57985;SDS011;43788;42.670;23.330;2024-03-23T08:44:44;1.88;;;0.90;;
57985;SDS011;43788;42.670;23.330;2024-03-23T08:47:11;1.45;;;1.08;;
57985;SDS011;43788;42.670;23.330;2024-03-23T08:49:37;4.78;;;1.27;;
57985;SDS011;43788;42.670;23.330;2024-03-23T08:52:03;1.73;;;1.15;;
57985;SDS011;43788;42.670;23.330;2024-03-23T08:54:29;1.40;;;1.30;;
57985;SDS011;43788;42.670;23.330;2024-03-23T08:56:56;1.27;;;1.17;;
57985;SDS011;43788;42.670;23.330;2024-03-23T08:59:22;1.48;;;1.38;;
57985;SDS011;43788;42.670;23.330;2024-03-23T09:01:49;3.33;;;1.40;;
57985;SDS011;43788;42.670;23.330;2024-03-23T09:04:14;1.48;;;1.38;;
57985;SDS011;43788;42.670;23.330;2024-03-23T09:06:42;1.33;;;1.05;;
57985;SDS011;43788;42.670;23.330;2024-03-23T09:09:07;1.65;;;1.15;;
57985;SDS011;43788;42.670;23.330;2024-03-23T09:11:33;4.00;;;1.85;;
57985;SDS011;43788;42.670;23.330;2024-03-23T09:13:59;1.48;;;1.25;;
57985;SDS011;43788;42.670;23.330;2024-03-23T09:16:24;1.27;;;1.17;;
57985;SDS011;43788;42.670;23.330;2024-03-23T09:18:50;2.53;;;1.63;;
57985;SDS011;43788;42.670;23.330;2024-03-23T09:21:15;1.40;;;1.20;;
57985;SDS011;43788;42.670;23.330;2024-03-23T09:23:44;1.17;;;1.08;;
57985;SDS011;43788;42.670;23.330;2024-03-23T09:26:11;1.50;;;1.20;;
57985;SDS011;43788;42.670;23.330;2024-03-23T09:28:48;1.90;;;1.70;;
57985;SDS011;43788;42.670;23.330;2024-03-23T09:31:14;1.50;;;1.40;;
57985;SDS011;43788;42.670;23.330;2024-03-23T09:33:40;1.05;;;0.98;;
57985;SDS011;43788;42.670;23.330;2024-03-23T09:36:06;1.30;;;1.13;;
57985;SDS011;43788;42.670;23.330;2024-03-23T09:38:32;3.85;;;1.10;;
57985;SDS011;43788;42.670;23.330;2024-03-23T09:40:58;1.20;;;1.10;;
57985;SDS011;43788;42.670;23.330;2024-03-23T09:43:24;1.25;;;1.10;;
57985;SDS011;43788;42.670;23.330;2024-03-23T09:45:50;1.52;;;1.27;;
57985;SDS011;43788;42.670;23.330;2024-03-23T09:48:16;4.30;;;1.67;;
57985;SDS011;43788;42.670;23.330;2024-03-23T09:50:45;1.65;;;1.42;;
57985;SDS011;43788;42.670;23.330;2024-03-23T09:53:11;1.27;;;1.17;;
57985;SDS011;43788;42.670;23.330;2024-03-23T09:55:38;2.05;;;1.40;;
57985;SDS011;43788;42.670;23.330;2024-03-23T09:58:04;1.30;;;1.20;;
57985;SDS011;43788;42.670;23.330;2024-03-23T10:00:32;2.63;;;1.20;;
57985;SDS011;43788;42.670;23.330;2024-03-23T10:02:58;1.33;;;1.23;;
57985;SDS011;43788;42.670;23.330;2024-03-23T10:05:26;2.47;;;1.15;;
57985;SDS011;43788;42.670;23.330;2024-03-23T10:07:53;5.00;;;1.30;;
57985;SDS011;43788;42.670;23.330;2024-03-23T10:10:19;1.35;;;1.00;;
57985;SDS011;43788;42.670;23.330;2024-03-23T10:12:46;3.03;;;1.27;;
57985;SDS011;43788;42.670;23.330;2024-03-23T10:15:18;0.70;;;0.70;;
57985;SDS011;43788;42.670;23.330;2024-03-23T10:17:45;1.13;;;1.02;;
57985;SDS011;43788;42.670;23.330;2024-03-23T10:20:13;1.05;;;1.00;;
57985;SDS011;43788;42.670;23.330;2024-03-23T10:22:45;1.10;;;1.00;;
57985;SDS011;43788;42.670;23.330;2024-03-23T10:25:10;1.38;;;1.25;;
57985;SDS011;43788;42.670;23.330;2024-03-23T10:27:37;0.98;;;0.90;;
57985;SDS011;43788;42.670;23.330;2024-03-23T10:30:13;1.10;;;1.00;;
57985;SDS011;43788;42.670;23.330;2024-03-23T10:32:42;0.60;;;0.60;;
57985;SDS011;43788;42.670;23.330;2024-03-23T10:35:15;1.75;;;1.00;;
57985;SDS011;43788;42.670;23.330;2024-03-23T10:37:43;1.02;;;0.98;;
57985;SDS011;43788;42.670;23.330;2024-03-23T10:40:09;1.00;;;0.90;;
57985;SDS011;43788;42.670;23.330;2024-03-23T10:42:36;2.13;;;1.02;;
57985;SDS011;43788;42.670;23.330;2024-03-23T10:45:05;0.95;;;0.88;;
57985;SDS011;43788;42.670;23.330;2024-03-23T10:47:32;2.55;;;1.00;;
57985;SDS011;43788;42.670;23.330;2024-03-23T10:49:59;1.35;;;0.98;;
57985;SDS011;43788;42.670;23.330;2024-03-23T10:52:24;0.98;;;0.88;;
57985;SDS011;43788;42.670;23.330;2024-03-23T10:54:51;1.33;;;0.90;;
57985;SDS011;43788;42.670;23.330;2024-03-23T10:57:17;1.42;;;1.20;;
57985;SDS011;43788;42.670;23.330;2024-03-23T10:59:45;1.23;;;1.05;;
57985;SDS011;43788;42.670;23.330;2024-03-23T11:02:18;1.27;;;0.95;;
57985;SDS011;43788;42.670;23.330;2024-03-23T11:04:44;2.00;;;0.88;;
57985;SDS011;43788;42.670;23.330;2024-03-23T11:09:57;1.45;;;1.00;;
57985;SDS011;43788;42.670;23.330;2024-03-23T11:12:27;0.70;;;0.70;;
57985;SDS011;43788;42.670;23.330;2024-03-23T11:14:59;1.95;;;1.13;;
57985;SDS011;43788;42.670;23.330;2024-03-23T11:17:31;1.83;;;1.00;;
57985;SDS011;43788;42.670;23.330;2024-03-23T11:19:57;1.45;;;1.23;;
57985;SDS011;43788;42.670;23.330;2024-03-23T11:25:14;0.80;;;0.80;;
57985;SDS011;43788;42.670;23.330;2024-03-23T11:27:40;1.65;;;1.00;;
57985;SDS011;43788;42.670;23.330;2024-03-23T11:30:09;1.88;;;0.90;;
57985;SDS011;43788;42.670;23.330;2024-03-23T11:32:37;1.13;;;0.90;;
57985;SDS011;43788;42.670;23.330;2024-03-23T11:35:02;1.15;;;0.73;;
57985;SDS011;43788;42.670;23.330;2024-03-23T11:37:28;0.80;;;0.80;;
57985;SDS011;43788;42.670;23.330;2024-03-23T11:39:54;1.08;;;0.90;;
57985;SDS011;43788;42.670;23.330;2024-03-23T11:42:20;0.50;;;0.50;;
57985;SDS011;43788;42.670;23.330;2024-03-23T11:44:46;1.45;;;0.77;;
57985;SDS011;43788;42.670;23.330;2024-03-23T11:47:12;1.05;;;0.80;;
57985;SDS011;43788;42.670;23.330;2024-03-23T11:49:38;1.83;;;1.73;;
57985;SDS011;43788;42.670;23.330;2024-03-23T11:52:08;1.10;;;0.90;;
57985;SDS011;43788;42.670;23.330;2024-03-23T11:54:34;0.90;;;0.70;;
57985;SDS011;43788;42.670;23.330;2024-03-23T11:57:00;1.42;;;1.20;;
57985;SDS011;43788;42.670;23.330;2024-03-23T11:59:32;2.03;;;1.25;;
57985;SDS011;43788;42.670;23.330;2024-03-23T12:01:58;2.80;;;1.05;;
57985;SDS011;43788;42.670;23.330;2024-03-23T12:04:25;0.98;;;0.98;;
57985;SDS011;43788;42.670;23.330;2024-03-23T12:06:51;0.88;;;0.88;;
57985;SDS011;43788;42.670;23.330;2024-03-23T12:09:34;0.93;;;0.77;;
57985;SDS011;43788;42.670;23.330;2024-03-23T12:12:05;1.08;;;0.80;;
57985;SDS011;43788;42.670;23.330;2024-03-23T12:14:33;0.82;;;0.75;;
57985;SDS011;43788;42.670;23.330;2024-03-23T12:19:35;0.68;;;0.65;;
57985;SDS011;43788;42.670;23.330;2024-03-23T12:22:00;2.15;;;0.90;;
57985;SDS011;43788;42.670;23.330;2024-03-23T12:24:26;0.80;;;0.70;;
57985;SDS011;43788;42.670;23.330;2024-03-23T12:26:51;0.60;;;0.60;;
57985;SDS011;43788;42.670;23.330;2024-03-23T12:29:17;0.70;;;0.70;;
57985;SDS011;43788;42.670;23.330;2024-03-23T12:31:43;1.00;;;0.55;;
57985;SDS011;43788;42.670;23.330;2024-03-23T12:34:09;0.93;;;0.63;;
57985;SDS011;43788;42.670;23.330;2024-03-23T12:36:34;1.23;;;0.80;;
57985;SDS011;43788;42.670;23.330;2024-03-23T12:39:00;0.60;;;0.50;;
57985;SDS011;43788;42.670;23.330;2024-03-23T12:41:25;0.73;;;0.70;;
57985;SDS011;43788;42.670;23.330;2024-03-23T12:43:51;1.85;;;0.93;;
57985;SDS011;43788;42.670;23.330;2024-03-23T12:46:16;0.43;;;0.43;;
57985;SDS011;43788;42.670;23.330;2024-03-23T12:48:44;1.58;;;0.70;;
57985;SDS011;43788;42.670;23.330;2024-03-23T12:51:10;0.47;;;0.38;;
57985;SDS011;43788;42.670;23.330;2024-03-23T12:53:38;0.43;;;0.40;;
57985;SDS011;43788;42.670;23.330;2024-03-23T12:56:03;1.05;;;0.52;;
57985;SDS011;43788;42.670;23.330;2024-03-23T12:58:29;0.10;;;0.10;;
57985;SDS011;43788;42.670;23.330;2024-03-23T13:00:57;0.20;;;0.20;;
57985;SDS011;43788;42.670;23.330;2024-03-23T13:03:23;0.28;;;0.10;;
57985;SDS011;43788;42.670;23.330;2024-03-23T13:05:52;0.20;;;0.20;;
57985;SDS011;43788;42.670;23.330;2024-03-23T13:08:17;0.25;;;0.20;;
57985;SDS011;43788;42.670;23.330;2024-03-23T13:10:43;0.75;;;0.10;;
57985;SDS011;43788;42.670;23.330;2024-03-23T13:13:10;0.90;;;0.17;;
57985;SDS011;43788;42.670;23.330;2024-03-23T13:15:35;0.17;;;0.10;;
57985;SDS011;43788;42.670;23.330;2024-03-23T13:18:01;0.10;;;0.10;;
57985;SDS011;43788;42.670;23.330;2024-03-23T13:20:26;0.17;;;0.17;;
57985;SDS011;43788;42.670;23.330;2024-03-23T13:22:52;0.10;;;0.10;;
57985;SDS011;43788;42.670;23.330;2024-03-23T13:25:18;0.10;;;0.10;;
57985;SDS011;43788;42.670;23.330;2024-03-23T13:27:44;0.82;;;0.20;;
57985;SDS011;43788;42.670;23.330;2024-03-23T13:30:09;0.17;;;0.10;;
57985;SDS011;43788;42.670;23.330;2024-03-23T13:32:36;0.10;;;0.10;;
57985;SDS011;43788;42.670;23.330;2024-03-23T13:35:01;0.10;;;0.10;;
57985;SDS011;43788;42.670;23.330;2024-03-23T13:37:28;0.20;;;0.20;;
57985;SDS011;43788;42.670;23.330;2024-03-23T13:39:54;0.10;;;0.10;;
57985;SDS011;43788;42.670;23.330;2024-03-23T13:42:20;0.10;;;0.10;;
57985;SDS011;43788;42.670;23.330;2024-03-23T13:44:45;0.00;;;0.00;;
57985;SDS011;43788;42.670;23.330;2024-03-23T13:47:14;0.77;;;0.17;;
57985;SDS011;43788;42.670;23.330;2024-03-23T13:49:39;0.43;;;0.10;;
57985;SDS011;43788;42.670;23.330;2024-03-23T13:52:05;0.40;;;0.32;;
57985;SDS011;43788;42.670;23.330;2024-03-23T13:54:32;0.10;;;0.10;;
57985;SDS011;43788;42.670;23.330;2024-03-23T13:56:57;0.00;;;0.00;;
57985;SDS011;43788;42.670;23.330;2024-03-23T13:59:23;0.08;;;0.08;;
57985;SDS011;43788;42.670;23.330;2024-03-23T14:01:49;0.30;;;0.30;;
57985;SDS011;43788;42.670;23.330;2024-03-23T14:04:16;0.25;;;0.20;;
57985;SDS011;43788;42.670;23.330;2024-03-23T14:06:44;0.20;;;0.20;;
57985;SDS011;43788;42.670;23.330;2024-03-23T14:09:11;2.28;;;0.15;;
57985;SDS011;43788;42.670;23.330;2024-03-23T14:11:37;0.20;;;0.20;;
57985;SDS011;43788;42.670;23.330;2024-03-23T14:14:03;0.00;;;0.00;;
57985;SDS011;43788;42.670;23.330;2024-03-23T14:16:32;0.10;;;0.10;;
57985;SDS011;43788;42.670;23.330;2024-03-23T14:18:58;0.10;;;0.10;;
57985;SDS011;43788;42.670;23.330;2024-03-23T14:21:25;0.22;;;0.15;;
57985;SDS011;43788;42.670;23.330;2024-03-23T14:23:50;0.08;;;0.08;;
57985;SDS011;43788;42.670;23.330;2024-03-23T14:26:16;0.10;;;0.10;;
57985;SDS011;43788;42.670;23.330;2024-03-23T14:28:42;0.10;;;0.10;;
57985;SDS011;43788;42.670;23.330;2024-03-23T14:31:07;0.13;;;0.13;;
57985;SDS011;43788;42.670;23.330;2024-03-23T14:33:37;0.20;;;0.15;;
57985;SDS011;43788;42.670;23.330;2024-03-23T14:36:04;0.43;;;0.20;;
57985;SDS011;43788;42.670;23.330;2024-03-23T14:38:30;0.30;;;0.30;;
57985;SDS011;43788;42.670;23.330;2024-03-23T14:41:01;0.15;;;0.15;;
57985;SDS011;43788;42.670;23.330;2024-03-23T14:43:28;0.10;;;0.10;;
57985;SDS011;43788;42.670;23.330;2024-03-23T14:48:31;0.10;;;0.10;;
57985;SDS011;43788;42.670;23.330;2024-03-23T14:50:58;0.10;;;0.10;;
57985;SDS011;43788;42.670;23.330;2024-03-23T14:53:24;0.30;;;0.30;;
57985;SDS011;43788;42.670;23.330;2024-03-23T14:55:54;0.65;;;0.28;;
57985;SDS011;43788;42.670;23.330;2024-03-23T14:58:20;0.40;;;0.40;;
57985;SDS011;43788;42.670;23.330;2024-03-23T15:00:45;0.20;;;0.20;;
57985;SDS011;43788;42.670;23.330;2024-03-23T15:03:18;0.52;;;0.30;;
57985;SDS011;43788;42.670;23.330;2024-03-23T15:08:20;0.30;;;0.30;;
57985;SDS011;43788;42.670;23.330;2024-03-23T15:10:46;0.20;;;0.20;;
57985;SDS011;43788;42.670;23.330;2024-03-23T15:13:11;0.30;;;0.17;;
57985;SDS011;43788;42.670;23.330;2024-03-23T15:15:39;0.50;;;0.28;;
57985;SDS011;43788;42.670;23.330;2024-03-23T15:18:08;0.45;;;0.30;;
57985;SDS011;43788;42.670;23.330;2024-03-23T15:23:06;0.40;;;0.30;;
57985;SDS011;43788;42.670;23.330;2024-03-23T15:25:32;1.85;;;0.30;;
57985;SDS011;43788;42.670;23.330;2024-03-23T15:27:58;1.00;;;0.40;;
57985;SDS011;43788;42.670;23.330;2024-03-23T15:30:25;0.88;;;0.43;;
57985;SDS011;43788;42.670;23.330;2024-03-23T15:32:54;0.57;;;0.40;;
57985;SDS011;43788;42.670;23.330;2024-03-23T15:35:19;0.10;;;0.10;;
57985;SDS011;43788;42.670;23.330;2024-03-23T15:37:48;0.75;;;0.25;;
57985;SDS011;43788;42.670;23.330;2024-03-23T15:40:13;0.20;;;0.20;;